Time;durP1;ratioP1;P1;durP2;ratioP2;P2;SDS_P1;SDS_P2;PMS_P1;PMS_P2;Temp;Humidity;BMP_temperature;BMP_pressure;BME280_temperature;BME280_humidity;BME280_pressure;Samples;Min_cycle;Max_cycle;Signal;HPM_P1;HPM_P2
2023/03/29 00:00:34;;;;;;;9.20;4.18;;;5.50;99.90;;;;;;5091791;28;20046;-47
2023/03/29 00:03:02;;;;;;;8.05;3.75;;;5.10;99.90;;;;;;5093242;28;20040;-48
2023/03/29 00:05:27;;;;;;;8.77;4.07;;;5.10;99.90;;;;;;5092931;28;20051;-48
2023/03/29 00:07:53;;;;;;;8.80;4.30;;;5.20;99.90;;;;;;5092726;28;20044;-48
2023/03/29 00:10:22;;;;;;;9.93;3.97;;;5.10;99.90;;;;;;5092896;28;20075;-48
2023/03/29 00:12:50;;;;;;;8.85;3.80;;;5.30;99.90;;;;;;5091332;28;20111;-49
2023/03/29 00:15:16;;;;;;;7.32;3.97;;;5.30;99.90;;;;;;5092702;28;20044;-48
2023/03/29 00:17:42;;;;;;;11.50;4.32;;;5.20;99.90;;;;;;5091305;28;20043;-47
2023/03/29 00:20:09;;;;;;;8.68;3.72;;;5.30;99.90;;;;;;5092681;28;20044;-52
2023/03/29 00:22:36;;;;;;;7.88;3.50;;;5.30;99.90;;;;;;5092686;28;20050;-47
2023/03/29 00:25:03;;;;;;;9.48;3.97;;;5.20;99.90;;;;;;5092536;28;20044;-48
2023/03/29 00:27:28;;;;;;;8.55;3.88;;;5.20;99.90;;;;;;5092379;28;20082;-48
2023/03/29 00:29:55;;;;;;;7.13;3.80;;;5.10;99.90;;;;;;5092448;28;20067;-49
2023/03/29 00:32:21;;;;;;;6.88;3.35;;;5.20;99.90;;;;;;5092361;28;20051;-48
2023/03/29 00:34:49;;;;;;;8.90;3.53;;;5.30;99.90;;;;;;5092595;28;20040;-49
2023/03/29 00:37:17;;;;;;;9.73;3.63;;;5.10;99.90;;;;;;5092189;28;20423;-47
2023/03/29 00:39:44;;;;;;;10.88;4.72;;;5.20;99.90;;;;;;5092259;28;20502;-47
2023/03/29 00:42:15;;;;;;;9.93;3.42;;;5.40;99.90;;;;;;5090802;28;20329;-48
2023/03/29 00:45:01;;;;;;;7.75;3.60;;;5.20;99.90;;;;;;5091917;28;20043;-48
2023/03/29 00:47:35;;;;;;;9.13;4.00;;;5.50;99.90;;;;;;5092310;28;20036;-49
2023/03/29 00:50:15;;;;;;;8.10;3.35;;;5.30;99.90;;;;;;5092007;28;20044;-47
2023/03/29 00:52:45;;;;;;;10.45;3.97;;;5.50;99.90;;;;;;5091976;28;20387;-51
2023/03/29 00:55:15;;;;;;;7.80;3.30;;;5.50;99.90;;;;;;5092089;28;20507;-49
2023/03/29 00:57:45;;;;;;;7.20;3.53;;;5.40;99.90;;;;;;5092148;28;20067;-48
2023/03/29 01:00:17;;;;;;;9.68;3.22;;;5.20;99.90;;;;;;5092073;28;20051;-50
2023/03/29 01:02:52;;;;;;;10.57;3.50;;;5.20;99.90;;;;;;5091866;28;20559;-48
2023/03/29 01:05:29;;;;;;;11.50;3.63;;;5.20;99.90;;;;;;5090717;28;20069;-48
2023/03/29 01:08:05;;;;;;;7.00;3.10;;;5.20;99.90;;;;;;5092046;28;20055;-53
2023/03/29 01:10:55;;;;;;;7.97;3.28;;;5.50;99.90;;;;;;5092117;28;20039;-53
2023/03/29 01:13:58;;;;;;;6.88;3.55;;;5.20;99.90;;;;;;5091729;28;20488;-48
2023/03/29 01:16:27;;;;;;;8.50;3.50;;;5.50;99.90;;;;;;5070003;28;20062;-48
2023/03/29 01:18:53;;;;;;;9.00;3.80;;;5.50;99.90;;;;;;5090517;28;20481;-47
2023/03/29 01:21:24;;;;;;;8.75;4.03;;;5.40;99.90;;;;;;5091889;28;20515;-47
2023/03/29 01:23:52;;;;;;;7.25;3.58;;;5.40;99.90;;;;;;5091705;28;20124;-48
2023/03/29 01:26:22;;;;;;;9.00;3.17;;;5.20;99.90;;;;;;5091535;28;20070;-48
2023/03/29 01:29:01;;;;;;;8.05;3.53;;;5.40;99.90;;;;;;5091861;28;20075;-50
2023/03/29 01:31:35;;;;;;;10.38;3.45;;;5.40;99.90;;;;;;5091650;28;20485;-49
2023/03/29 01:34:37;;;;;;;9.73;3.33;;;5.20;99.90;;;;;;5091584;28;20032;-48
2023/03/29 01:37:17;;;;;;;8.45;3.28;;;5.50;99.90;;;;;;5084127;28;20091;-48
2023/03/29 01:39:43;;;;;;;8.10;3.33;;;5.40;99.90;;;;;;5091842;28;20040;-48
2023/03/29 01:42:56;;;;;;;8.50;3.33;;;5.20;99.90;;;;;;5091430;28;20496;-47
2023/03/29 01:45:49;;;;;;;9.70;4.15;;;5.30;99.90;;;;;;5081854;28;20048;-48
2023/03/29 01:48:23;;;;;;;12.55;3.58;;;5.20;99.90;;;;;;5091579;28;20070;-50
2023/03/29 01:51:08;;;;;;;8.35;3.72;;;5.30;99.90;;;;;;5091786;28;20076;-50
2023/03/29 01:53:45;;;;;;;8.93;3.60;;;5.30;99.90;;;;;;5091379;28;20047;-48
2023/03/29 01:56:18;;;;;;;8.00;3.35;;;5.20;99.90;;;;;;5095331;28;20393;-47
2023/03/29 01:58:50;;;;;;;9.50;3.63;;;5.20;99.90;;;;;;5095367;28;20048;-48
2023/03/29 02:01:21;;;;;;;7.03;3.45;;;5.20;99.90;;;;;;5095308;28;20563;-49
2023/03/29 02:03:53;;;;;;;8.75;4.05;;;5.30;99.90;;;;;;5095453;28;20040;-51
2023/03/29 02:06:24;;;;;;;10.95;3.70;;;5.30;99.90;;;;;;5095212;28;20085;-51
2023/03/29 02:08:51;;;;;;;8.88;4.70;;;5.10;99.90;;;;;;5076902;28;20491;-48
2023/03/29 02:11:19;;;;;;;7.85;3.30;;;5.20;99.90;;;;;;5095087;28;20496;-48
2023/03/29 02:13:45;;;;;;;7.70;3.40;;;5.30;99.90;;;;;;5094945;28;20055;-47
2023/03/29 02:16:12;;;;;;;7.20;3.20;;;5.20;99.90;;;;;;5094013;28;20040;-49
2023/03/29 02:18:45;;;;;;;8.20;3.65;;;5.20;99.90;;;;;;5094793;28;20162;-52
2023/03/29 02:21:20;;;;;;;7.82;3.33;;;5.50;99.90;;;;;;5093533;28;20044;-49
2023/03/29 02:23:47;;;;;;;7.60;3.40;;;5.30;99.90;;;;;;5094840;28;20082;-48
2023/03/29 02:26:14;;;;;;;8.15;4.13;;;5.50;99.90;;;;;;5094787;28;20191;-50
2023/03/29 02:28:40;;;;;;;10.85;4.18;;;5.50;99.90;;;;;;5094605;28;20492;-49
2023/03/29 02:31:13;;;;;;;8.63;3.85;;;5.40;99.90;;;;;;5094855;28;20040;-50
2023/03/29 02:33:59;;;;;;;9.38;3.60;;;5.30;99.90;;;;;;5094567;28;20039;-48
2023/03/29 02:36:31;;;;;;;8.38;3.72;;;5.20;99.90;;;;;;5094528;28;20068;-48
2023/03/29 02:38:57;;;;;;;;;;;5.20;99.90;;;;;;5094880;28;20400;-49
2023/03/29 02:41:24;;;;;;;8.88;4.35;;;5.40;99.90;;;;;;5094905;28;19920;-52
2023/03/29 02:43:51;;;;;;;10.05;4.57;;;5.20;99.90;;;;;;5094604;28;20043;-48
2023/03/29 02:46:18;;;;;;;9.68;4.32;;;5.50;99.90;;;;;;5094575;28;20047;-48
2023/03/29 02:48:46;;;;;;;8.15;4.45;;;5.50;99.90;;;;;;5092965;28;20043;-49
2023/03/29 02:51:19;;;;;;;9.77;5.30;;;5.30;99.90;;;;;;5094300;28;20063;-48
2023/03/29 02:53:50;;;;;;;11.32;4.47;;;5.40;99.90;;;;;;5094413;28;20438;-49
2023/03/29 02:56:20;;;;;;;8.60;4.43;;;5.20;99.90;;;;;;5094234;28;20044;-48
2023/03/29 02:58:46;;;;;;;10.65;4.53;;;5.40;99.90;;;;;;5094147;28;20506;-48
2023/03/29 03:01:12;;;;;;;9.52;4.78;;;5.20;99.90;;;;;;5094237;28;20036;-47
2023/03/29 03:03:38;;;;;;;10.95;4.82;;;5.30;99.90;;;;;;5093987;28;20056;-47
2023/03/29 03:06:04;;;;;;;10.52;4.63;;;5.30;99.90;;;;;;5093462;28;20044;-47
2023/03/29 03:08:31;;;;;;;10.98;4.72;;;5.60;99.90;;;;;;5094193;28;20044;-48
2023/03/29 03:10:57;;;;;;;10.13;4.93;;;5.60;99.90;;;;;;5093990;28;20128;-49
2023/03/29 03:13:22;;;;;;;11.02;4.82;;;5.60;99.90;;;;;;5093900;28;20046;-48
2023/03/29 03:15:48;;;;;;;10.77;4.72;;;5.40;99.90;;;;;;5093843;28;20451;-48
2023/03/29 03:18:15;;;;;;;9.68;4.78;;;5.50;99.90;;;;;;5093854;28;20519;-48
2023/03/29 03:20:41;;;;;;;10.43;5.70;;;5.50;99.90;;;;;;5093855;28;20044;-48
2023/03/29 03:23:10;;;;;;;10.02;5.22;;;5.50;99.90;;;;;;5092672;28;20109;-49
2023/03/29 03:25:36;;;;;;;11.93;5.05;;;5.20;99.90;;;;;;5093540;28;20589;-50
2023/03/29 03:28:02;;;;;;;13.50;5.28;;;5.40;99.90;;;;;;5093724;28;20043;-48
2023/03/29 03:30:27;;;;;;;10.15;5.13;;;5.30;99.90;;;;;;5093521;28;20055;-48
2023/03/29 03:32:53;;;;;;;8.98;5.28;;;5.40;99.90;;;;;;5093482;28;20461;-49
2023/03/29 03:35:20;;;;;;;15.02;5.78;;;5.40;99.90;;;;;;5093694;28;20154;-49
2023/03/29 03:37:47;;;;;;;11.13;5.28;;;5.20;99.90;;;;;;5093451;28;20131;-48
2023/03/29 03:40:13;;;;;;;8.70;4.85;;;5.30;99.90;;;;;;5092055;28;20044;-50
2023/03/29 03:42:40;;;;;;;10.60;5.18;;;5.60;99.90;;;;;;5092296;28;20048;-47
2023/03/29 03:45:07;;;;;;;10.30;5.45;;;5.20;99.90;;;;;;5093302;28;20040;-48
2023/03/29 03:47:34;;;;;;;9.52;5.00;;;5.50;99.90;;;;;;5092203;28;20527;-48
2023/03/29 03:49:59;;;;;;;10.85;5.13;;;5.50;99.90;;;;;;5093034;28;20120;-49
2023/03/29 03:52:25;;;;;;;11.68;5.50;;;5.40;99.90;;;;;;5093262;28;20467;-48
2023/03/29 03:54:51;;;;;;;9.88;5.18;;;5.20;99.90;;;;;;5093225;28;20111;-48
2023/03/29 03:57:17;;;;;;;11.85;5.45;;;5.40;99.90;;;;;;5093015;28;20395;-48
2023/03/29 03:59:43;;;;;;;8.85;4.85;;;5.50;99.90;;;;;;5092755;28;20230;-48
2023/03/29 04:02:09;;;;;;;10.40;5.45;;;5.60;99.90;;;;;;5092995;28;20044;-48
2023/03/29 04:04:35;;;;;;;9.55;4.93;;;5.30;99.90;;;;;;5092874;28;20119;-48
2023/03/29 04:07:01;;;;;;;10.85;5.30;;;5.30;99.90;;;;;;5093112;28;20119;-48
2023/03/29 04:09:31;;;;;;;12.15;5.65;;;5.60;99.90;;;;;;5092806;28;20093;-48
2023/03/29 04:11:58;;;;;;;12.27;5.47;;;5.60;99.90;;;;;;5092811;28;20089;-48
2023/03/29 04:14:24;;;;;;;12.27;5.50;;;5.50;99.90;;;;;;5092711;28;20078;-51
2023/03/29 04:16:53;;;;;;;10.50;5.30;;;5.60;99.90;;;;;;5092719;28;20044;-50
2023/03/29 04:19:20;;;;;;;10.02;5.13;;;5.50;99.90;;;;;;5091951;28;20036;-48
2023/03/29 04:21:48;;;;;;;9.35;5.38;;;5.30;99.90;;;;;;5092642;28;20496;-48
2023/03/29 04:24:14;;;;;;;10.90;5.40;;;5.50;99.90;;;;;;5091685;28;20048;-51
2023/03/29 04:26:39;;;;;;;13.15;5.22;;;5.50;99.90;;;;;;5091619;28;20468;-47
2023/03/29 04:29:06;;;;;;;10.85;5.00;;;5.50;99.90;;;;;;5092540;28;20036;-50
2023/03/29 04:31:32;;;;;;;10.05;5.30;;;5.60;99.90;;;;;;5091152;28;20043;-48
2023/03/29 04:33:58;;;;;;;9.20;5.10;;;5.40;99.90;;;;;;5092327;28;20500;-49
2023/03/29 04:36:24;;;;;;;11.85;5.85;;;5.50;99.90;;;;;;5092245;28;20078;-47
2023/03/29 04:38:52;;;;;;;12.45;5.68;;;5.60;99.90;;;;;;5092158;28;20431;-49
2023/03/29 04:41:19;;;;;;;13.88;5.30;;;5.60;99.90;;;;;;5092174;28;20039;-48
2023/03/29 04:43:45;;;;;;;10.40;6.00;;;5.70;99.90;;;;;;5092122;28;20040;-49
2023/03/29 04:46:12;;;;;;;12.75;5.88;;;5.70;99.90;;;;;;5092752;28;20077;-48
2023/03/29 04:48:38;;;;;;;11.82;5.47;;;5.50;99.90;;;;;;5092248;28;20433;-49
2023/03/29 04:51:04;;;;;;;13.07;5.95;;;5.60;99.90;;;;;;5092230;28;20111;-49
2023/03/29 04:53:30;;;;;;;11.68;5.35;;;5.70;99.90;;;;;;5092096;28;20101;-47
2023/03/29 04:55:58;;;;;;;10.45;5.28;;;5.70;99.90;;;;;;5091849;28;20416;-48
2023/03/29 04:58:24;;;;;;;11.45;5.15;;;5.40;99.90;;;;;;5092044;28;20048;-48
2023/03/29 05:00:50;;;;;;;9.60;5.55;;;5.50;99.90;;;;;;5091988;28;20175;-48
2023/03/29 05:03:16;;;;;;;9.15;5.15;;;5.40;99.90;;;;;;5092100;28;20538;-49
2023/03/29 05:05:42;;;;;;;11.55;5.30;;;5.60;99.90;;;;;;5091933;28;20040;-48
2023/03/29 05:08:08;;;;;;;14.82;5.65;;;5.60;99.90;;;;;;5090776;28;20084;-51
2023/03/29 05:10:34;;;;;;;14.57;6.03;;;5.70;99.90;;;;;;5091886;28;20076;-48
2023/03/29 05:13:00;;;;;;;11.73;5.68;;;5.60;99.90;;;;;;5091791;28;20040;-47
2023/03/29 05:15:26;;;;;;;13.65;5.53;;;5.50;99.90;;;;;;5091797;28;20476;-49
2023/03/29 05:17:52;;;;;;;11.25;6.32;;;5.60;99.90;;;;;;5074252;28;20044;-47
2023/03/29 05:20:17;;;;;;;13.88;6.60;;;5.50;99.90;;;;;;5091788;28;20040;-47
2023/03/29 05:22:43;;;;;;;10.98;5.80;;;5.90;99.90;;;;;;5092021;28;20131;-48
2023/03/29 05:25:10;;;;;;;11.50;6.05;;;5.50;99.90;;;;;;5091600;28;20044;-49
2023/03/29 05:27:36;;;;;;;10.30;5.80;;;5.80;99.90;;;;;;5091636;28;20040;-47
2023/03/29 05:30:02;;;;;;;10.00;6.07;;;5.60;99.90;;;;;;5093760;28;20044;-48
2023/03/29 05:32:28;;;;;;;10.25;5.70;;;5.70;99.90;;;;;;5093896;28;20400;-48
2023/03/29 05:34:54;;;;;;;12.38;5.85;;;5.80;99.90;;;;;;5095377;28;20127;-48
2023/03/29 05:37:20;;;;;;;10.60;5.68;;;5.70;99.90;;;;;;5095500;28;20465;-47
2023/03/29 05:39:45;;;;;;;11.00;5.47;;;5.50;99.90;;;;;;5095433;28;20044;-47
2023/03/29 05:42:12;;;;;;;11.45;6.35;;;5.50;99.90;;;;;;5095428;28;20435;-48
2023/03/29 05:44:39;;;;;;;11.43;5.80;;;5.50;99.90;;;;;;5095588;28;20078;-47
2023/03/29 05:47:05;;;;;;;12.60;6.43;;;5.80;99.90;;;;;;5095317;28;20066;-47
2023/03/29 05:49:31;;;;;;;11.02;6.18;;;5.70;99.90;;;;;;5095250;28;20097;-48
2023/03/29 05:51:57;;;;;;;14.35;6.85;;;5.90;99.90;;;;;;5095161;28;20115;-47
2023/03/29 05:54:24;;;;;;;13.05;7.10;;;5.60;99.90;;;;;;5095058;28;20245;-49
2023/03/29 05:56:50;;;;;;;13.65;6.55;;;6.00;99.90;;;;;;5093820;28;20067;-47
2023/03/29 05:59:16;;;;;;;14.90;6.32;;;6.00;99.90;;;;;;5093933;28;20650;-50
2023/03/29 06:01:45;;;;;;;11.20;6.13;;;6.00;99.90;;;;;;5093938;28;20063;-48
2023/03/29 06:04:12;;;;;;;13.18;6.65;;;5.60;99.90;;;;;;5093617;28;20105;-48
2023/03/29 06:06:38;;;;;;;14.38;6.63;;;5.90;99.90;;;;;;5093415;28;20051;-48
2023/03/29 06:09:04;;;;;;;16.15;6.72;;;5.80;99.90;;;;;;5094048;28;20044;-47
2023/03/29 06:11:31;;;;;;;12.60;8.32;;;6.10;99.90;;;;;;5093532;28;20056;-49
2023/03/29 06:13:57;;;;;;;12.95;7.88;;;6.00;99.90;;;;;;5093643;28;20510;-52
2023/03/29 06:16:24;;;;;;;12.57;7.32;;;5.60;99.90;;;;;;5093395;28;20498;-49
2023/03/29 06:18:50;;;;;;;12.05;7.63;;;6.10;99.90;;;;;;5093169;28;20035;-49
2023/03/29 06:21:16;;;;;;;15.35;7.80;;;5.70;99.90;;;;;;5093006;28;20350;-51
2023/03/29 06:23:42;;;;;;;16.95;7.68;;;6.00;99.90;;;;;;5093286;28;20492;-46
2023/03/29 06:26:09;;;;;;;14.60;8.07;;;6.10;99.90;;;;;;5093121;28;20400;-47
2023/03/29 06:28:35;;;;;;;14.20;7.35;;;6.10;99.90;;;;;;5091490;28;20054;-53
2023/03/29 06:31:03;;;;;;;19.83;7.85;;;5.60;99.90;;;;;;5093237;28;20119;-48
2023/03/29 06:33:29;;;;;;;14.50;7.72;;;6.10;99.90;;;;;;5092448;28;20040;-52
2023/03/29 06:35:56;;;;;;;14.52;8.27;;;6.20;99.90;;;;;;5080691;28;20033;-47
2023/03/29 06:38:21;;;;;;;20.33;9.07;;;6.20;99.90;;;;;;5081702;28;20052;-49
2023/03/29 06:40:47;;;;;;;16.95;8.32;;;5.70;99.90;;;;;;5091073;28;20109;-48
2023/03/29 06:43:13;;;;;;;14.75;8.10;;;5.80;99.90;;;;;;5083746;28;20081;-48
2023/03/29 06:45:39;;;;;;;17.02;8.45;;;5.90;99.90;;;;;;5081921;28;20484;-48
2023/03/29 06:48:06;;;;;;;14.25;7.75;;;6.30;99.90;;;;;;5077129;28;20068;-49
2023/03/29 06:50:33;;;;;;;17.27;8.82;;;6.20;99.90;;;;;;5092407;28;20428;-51
2023/03/29 06:52:59;;;;;;;15.77;9.35;;;6.00;99.90;;;;;;5091062;28;20059;-49
2023/03/29 06:55:25;;;;;;;17.00;8.95;;;5.90;99.90;;;;;;5086134;28;20036;-49
2023/03/29 06:57:52;;;;;;;16.17;9.48;;;6.00;99.90;;;;;;5081480;28;20048;-51
2023/03/29 07:00:26;;;;;;;14.93;8.40;;;5.90;99.90;;;;;;5087652;28;20047;-49
2023/03/29 07:02:57;;;;;;;14.30;8.57;;;6.50;99.90;;;;;;5091035;28;20515;-51
2023/03/29 07:05:26;;;;;;;15.43;9.38;;;6.70;99.90;;;;;;5092754;28;20059;-50
2023/03/29 07:07:58;;;;;;;16.52;8.98;;;6.70;99.90;;;;;;5091955;28;20075;-50
2023/03/29 07:10:31;;;;;;;15.10;8.90;;;6.20;99.90;;;;;;5082116;28;20147;-52
2023/03/29 07:13:00;;;;;;;15.25;8.65;;;6.50;99.90;;;;;;5081562;28;20043;-49
2023/03/29 07:15:27;;;;;;;14.50;8.82;;;6.30;99.90;;;;;;5070408;28;20033;-49
2023/03/29 07:17:53;;;;;;;16.83;8.68;;;6.60;99.90;;;;;;5071629;28;20079;-52
2023/03/29 07:20:21;;;;;;;15.43;8.68;;;6.60;99.90;;;;;;5071119;28;20487;-51
2023/03/29 07:22:49;;;;;;;15.40;8.38;;;7.00;99.90;;;;;;5070013;28;20105;-51
2023/03/29 07:25:16;;;;;;;16.75;8.57;;;7.00;99.90;;;;;;5070941;28;20059;-51
2023/03/29 07:27:41;;;;;;;14.50;9.07;;;6.40;99.90;;;;;;5080279;28;20067;-50
2023/03/29 07:30:11;;;;;;;14.57;8.43;;;6.90;99.90;;;;;;5082141;28;20064;-52
2023/03/29 07:32:37;;;;;;;23.90;8.57;;;6.80;99.90;;;;;;5088323;28;20040;-50
2023/03/29 07:35:05;;;;;;;14.65;8.80;;;7.00;99.90;;;;;;5091319;28;20057;-50
2023/03/29 07:37:33;;;;;;;14.15;8.55;;;6.60;99.90;;;;;;5088163;28;20060;-49
2023/03/29 07:39:59;;;;;;;13.43;8.45;;;6.90;99.90;;;;;;5083021;28;20438;-50
2023/03/29 07:42:26;;;;;;;16.75;8.30;;;6.50;99.90;;;;;;5083325;28;20052;-49
2023/03/29 07:44:53;;;;;;;14.98;9.25;;;6.70;99.90;;;;;;5091244;28;20511;-50
2023/03/29 07:47:19;;;;;;;16.00;8.75;;;7.10;99.90;;;;;;5091421;28;20044;-50
2023/03/29 07:49:45;;;;;;;14.20;7.93;;;7.10;99.90;;;;;;5089729;28;20198;-49
2023/03/29 07:52:10;;;;;;;12.82;7.97;;;6.80;99.90;;;;;;5091285;28;20094;-48
2023/03/29 07:54:37;;;;;;;14.80;7.90;;;6.70;99.90;;;;;;5091572;28;20064;-47
2023/03/29 07:57:03;;;;;;;14.88;8.85;;;7.30;99.90;;;;;;5086805;28;20043;-48
2023/03/29 07:59:29;;;;;;;14.40;8.32;;;7.20;99.90;;;;;;5088984;28;20036;-47
2023/03/29 08:01:55;;;;;;;16.60;9.02;;;6.90;99.90;;;;;;5091664;28;20082;-47
2023/03/29 08:04:21;;;;;;;15.23;8.55;;;7.40;99.90;;;;;;5091575;28;20452;-48
2023/03/29 08:06:47;;;;;;;15.23;8.57;;;7.00;99.90;;;;;;5091293;28;20032;-49
2023/03/29 08:09:13;;;;;;;13.85;7.93;;;7.40;99.90;;;;;;5084230;28;20036;-50
2023/03/29 08:11:39;;;;;;;14.73;8.95;;;7.10;99.90;;;;;;5071040;28;20052;-50
2023/03/29 08:14:06;;;;;;;12.98;7.90;;;7.30;99.90;;;;;;5070767;28;20036;-51
2023/03/29 08:16:32;;;;;;;14.65;8.85;;;7.60;99.90;;;;;;5071137;28;20036;-51
2023/03/29 08:18:58;;;;;;;14.77;9.23;;;7.60;99.90;;;;;;5070235;28;20044;-50
2023/03/29 08:21:24;;;;;;;14.38;8.30;;;7.70;99.90;;;;;;5070509;28;20408;-52
2023/03/29 08:23:50;;;;;;;13.32;8.50;;;7.80;99.90;;;;;;5070594;28;20075;-51
2023/03/29 08:26:16;;;;;;;13.32;7.90;;;7.40;99.90;;;;;;5070380;28;20064;-51
2023/03/29 08:28:45;;;;;;;13.80;8.30;;;7.60;99.90;;;;;;5070390;28;20406;-48
2023/03/29 08:31:10;;;;;;;13.85;7.78;;;7.70;99.90;;;;;;5070892;28;20048;-48
2023/03/29 08:33:36;;;;;;;18.90;8.98;;;7.80;99.90;;;;;;5070319;28;20120;-49
2023/03/29 08:36:03;;;;;;;14.75;8.30;;;7.80;99.90;;;;;;5070560;28;20396;-49
2023/03/29 08:38:29;;;;;;;16.15;9.23;;;7.80;99.90;;;;;;5070349;28;20053;-48
2023/03/29 08:40:55;;;;;;;14.63;8.23;;;8.00;99.90;;;;;;5070550;28;20114;-48
2023/03/29 08:43:21;;;;;;;12.80;7.40;;;7.90;99.90;;;;;;5070208;28;20477;-50
2023/03/29 08:45:49;;;;;;;12.98;8.10;;;8.30;99.90;;;;;;5070792;28;20044;-47
2023/03/29 08:48:23;;;;;;;19.52;8.73;;;8.40;99.90;;;;;;5074606;28;20054;-48
2023/03/29 08:50:57;;;;;;;14.32;8.05;;;8.20;99.90;;;;;;5090338;28;20340;-47
2023/03/29 08:53:37;;;;;;;13.05;8.25;;;8.40;99.90;;;;;;5089448;28;20126;-50
2023/03/29 08:56:14;;;;;;;13.50;7.88;;;8.30;99.90;;;;;;5090467;28;20044;-50
2023/03/29 08:58:41;;;;;;;13.80;8.30;;;8.30;99.90;;;;;;5090567;28;20040;-49
2023/03/29 09:01:10;;;;;;;13.75;7.30;;;8.70;99.90;;;;;;5087087;28;20036;-50
2023/03/29 09:03:49;;;;;;;15.95;7.95;;;8.60;99.90;;;;;;5090136;28;20040;-47
2023/03/29 09:06:17;;;;;;;13.55;7.65;;;8.80;99.90;;;;;;5090393;28;20119;-49
2023/03/29 09:08:46;;;;;;;15.35;8.32;;;8.70;99.90;;;;;;5090601;28;20040;-51
2023/03/29 09:11:25;;;;;;;15.50;8.68;;;8.50;99.90;;;;;;5090268;28;20040;-47
2023/03/29 09:14:16;;;;;;;14.90;8.38;;;8.60;99.90;;;;;;5091014;28;20124;-48
2023/03/29 09:16:45;;;;;;;17.08;9.35;;;8.60;99.90;;;;;;5091926;28;20389;-48
2023/03/29 09:19:38;;;;;;;15.82;8.40;;;9.00;99.90;;;;;;5073499;28;20059;-50
2023/03/29 09:22:35;;;;;;;18.33;8.43;;;8.80;99.90;;;;;;5091261;28;20484;-49
2023/03/29 09:25:13;;;;;;;16.42;8.75;;;9.10;99.90;;;;;;5091726;28;20522;-48
2023/03/29 09:27:57;;;;;;;16.02;8.50;;;9.40;99.90;;;;;;5091813;28;20095;-47
2023/03/29 09:30:29;;;;;;;16.50;8.57;;;9.50;99.90;;;;;;5091735;28;20057;-48
2023/03/29 09:33:00;;;;;;;16.08;9.30;;;9.60;99.90;;;;;;5091650;28;20083;-47
2023/03/29 09:35:36;;;;;;;18.80;8.73;;;9.40;99.90;;;;;;5091662;28;20062;-50
2023/03/29 09:38:06;;;;;;;17.50;8.98;;;9.50;99.90;;;;;;5091583;28;20048;-50
2023/03/29 09:40:42;;;;;;;20.52;10.30;;;9.40;99.90;;;;;;5091510;28;20503;-49
2023/03/29 09:43:12;;;;;;;17.55;9.35;;;9.50;99.90;;;;;;5091707;28;20048;-47
2023/03/29 09:45:39;;;;;;;15.60;9.07;;;9.60;99.90;;;;;;5091271;28;20511;-49
2023/03/29 09:48:17;;;;;;;18.08;10.80;;;9.50;99.90;;;;;;5090026;28;20055;-49
2023/03/29 09:50:46;;;;;;;21.45;10.20;;;9.60;99.90;;;;;;5081631;28;20044;-49
2023/03/29 09:53:14;;;;;;;19.52;10.13;;;9.60;99.90;;;;;;5081769;28;20048;-48
2023/03/29 09:55:42;;;;;;;18.98;9.35;;;9.80;99.90;;;;;;5071276;28;20045;-48
2023/03/29 09:58:26;;;;;;;18.98;10.02;;;9.70;99.90;;;;;;5071838;28;20372;-52
2023/03/29 10:00:53;;;;;;;19.73;10.30;;;9.60;99.90;;;;;;5071460;28;20049;-50
2023/03/29 10:03:22;;;;;;;16.83;9.75;;;9.80;99.90;;;;;;5053298;28;20500;-47
2023/03/29 10:05:52;;;;;;;21.92;9.88;;;9.70;99.90;;;;;;5071257;28;20040;-47
2023/03/29 10:08:25;;;;;;;17.95;10.80;;;9.70;99.90;;;;;;5071081;28;20097;-47
2023/03/29 10:10:51;;;;;;;19.83;10.20;;;9.80;99.90;;;;;;5070960;28;20036;-49
2023/03/29 10:13:32;;;;;;;18.92;9.75;;;9.60;99.90;;;;;;5071396;28;20046;-51
2023/03/29 10:16:06;;;;;;;19.73;10.38;;;9.80;99.90;;;;;;5071358;28;20048;-47
2023/03/29 10:18:37;;;;;;;17.35;10.50;;;9.60;99.90;;;;;;5074897;28;20044;-48
2023/03/29 10:21:04;;;;;;;19.45;11.32;;;9.90;99.90;;;;;;5074507;28;20036;-47
2023/03/29 10:23:36;;;;;;;21.15;10.55;;;9.60;99.90;;;;;;5073954;28;20083;-48
2023/03/29 10:26:05;;;;;;;23.05;11.40;;;9.60;99.90;;;;;;5073082;28;20515;-51
2023/03/29 10:28:33;;;;;;;20.83;10.50;;;9.60;99.90;;;;;;5074516;28;20099;-48
2023/03/29 10:31:02;;;;;;;20.27;12.63;;;9.70;99.90;;;;;;5080600;28;20501;-50
2023/03/29 10:33:31;;;;;;;18.92;11.63;;;9.70;99.90;;;;;;5074428;28;20059;-49
2023/03/29 10:35:59;;;;;;;24.35;11.50;;;9.90;99.90;;;;;;5073958;28;21032;-47
2023/03/29 10:38:28;;;;;;;23.83;11.88;;;10.10;99.90;;;;;;5073849;28;20433;-50
2023/03/29 10:41:02;;;;;;;21.08;11.85;;;10.00;99.90;;;;;;5080837;28;20089;-48
2023/03/29 10:43:36;;;;;;;23.42;12.02;;;10.20;99.90;;;;;;5091209;28;20087;-48
2023/03/29 10:46:27;;;;;;;24.20;12.88;;;10.00;99.90;;;;;;5094065;28;20047;-51
2023/03/29 10:49:04;;;;;;;26.30;13.23;;;10.20;99.90;;;;;;5093785;28;20032;-49
2023/03/29 10:51:31;;;;;;;20.67;12.38;;;10.10;99.90;;;;;;5094213;28;20055;-48
2023/03/29 10:54:01;;;;;;;22.40;13.80;;;10.00;99.90;;;;;;5092521;28;20040;-47
2023/03/29 10:56:49;;;;;;;20.55;11.95;;;10.30;99.90;;;;;;5092767;28;20090;-47
2023/03/29 10:59:31;;;;;;;20.73;11.80;;;10.50;99.90;;;;;;5094283;28;20648;-49
2023/03/29 11:02:18;;;;;;;23.80;12.50;;;10.50;99.90;;;;;;5094011;28;20043;-47
2023/03/29 11:04:55;;;;;;;21.40;11.90;;;10.80;99.90;;;;;;5093823;28;20036;-48
2023/03/29 11:07:46;;;;;;;21.15;12.70;;;11.00;99.90;;;;;;5094105;28;20580;-48
2023/03/29 11:10:51;;;;;;;17.58;11.30;;;11.10;99.90;;;;;;5093232;28;20032;-48
2023/03/29 11:13:31;;;;;;;21.50;12.43;;;11.30;99.90;;;;;;5093578;28;20083;-48
2023/03/29 11:16:40;;;;;;;21.63;12.23;;;11.40;99.90;;;;;;5093536;28;20035;-47
2023/03/29 11:19:15;;;;;;;22.25;13.38;;;11.60;99.90;;;;;;5093154;28;20044;-48
2023/03/29 11:22:00;;;;;;;20.23;12.02;;;11.80;99.90;;;;;;5093490;28;20040;-48
2023/03/29 11:24:32;;;;;;;20.40;13.27;;;11.90;99.90;;;;;;5092078;28;20048;-48
2023/03/29 11:27:30;;;;;;;21.20;13.18;;;11.70;99.90;;;;;;5092226;28;20036;-50
2023/03/29 11:30:05;;;;;;;23.63;13.25;;;11.80;99.90;;;;;;5086930;28;20470;-55
2023/03/29 11:32:36;;;;;;;23.00;12.57;;;11.80;99.90;;;;;;5093197;28;20048;-48
2023/03/29 11:35:22;;;;;;;20.42;12.27;;;11.90;99.90;;;;;;5093218;28;20036;-48
2023/03/29 11:38:15;;;;;;;19.98;13.23;;;11.90;99.90;;;;;;5092716;28;20056;-49
2023/03/29 11:40:53;;;;;;;25.38;13.18;;;11.70;99.90;;;;;;5093154;28;20097;-50
2023/03/29 11:43:57;;;;;;;17.67;12.43;;;11.90;99.90;;;;;;5093123;28;20044;-47
2023/03/29 11:46:36;;;;;;;22.02;12.88;;;11.80;99.90;;;;;;5049695;28;20689;-48
2023/03/29 11:49:05;;;;;;;22.88;12.80;;;11.70;99.90;;;;;;5084284;28;20121;-47
2023/03/29 11:51:41;;;;;;;19.35;13.30;;;11.80;99.90;;;;;;5092093;28;20404;-48
2023/03/29 11:54:14;;;;;;;21.83;12.88;;;11.60;99.90;;;;;;5091913;28;20040;-48
2023/03/29 11:56:46;;;;;;;20.45;13.45;;;11.90;99.90;;;;;;5092733;28;20044;-47
2023/03/29 11:59:27;;;;;;;23.33;13.65;;;12.00;99.90;;;;;;5092851;28;20043;-48
2023/03/29 12:02:00;;;;;;;20.43;13.63;;;12.00;99.90;;;;;;5091954;28;20388;-48
2023/03/29 12:04:36;;;;;;;21.25;14.07;;;11.90;99.90;;;;;;5092553;28;20036;-49
2023/03/29 12:07:11;;;;;;;22.60;14.55;;;11.80;99.90;;;;;;5092153;28;20184;-51
2023/03/29 12:09:49;;;;;;;24.48;13.85;;;11.90;99.90;;;;;;5091863;28;20396;-49
2023/03/29 12:12:25;;;;;;;26.92;14.30;;;12.00;99.90;;;;;;5090975;28;20040;-51
2023/03/29 12:15:19;;;;;;;24.33;15.48;;;12.30;99.90;;;;;;5092663;28;20032;-47
2023/03/29 12:17:53;;;;;;;22.52;13.90;;;12.50;99.90;;;;;;5092521;28;20123;-48
2023/03/29 12:20:28;;;;;;;20.95;13.05;;;12.60;99.90;;;;;;5092696;28;20108;-50
2023/03/29 12:22:54;;;;;;;23.08;13.60;;;12.80;99.90;;;;;;5092771;28;20051;-48
2023/03/29 12:25:47;;;;;;;18.55;13.00;;;12.70;99.90;;;;;;5092458;28;20046;-49
2023/03/29 12:28:40;;;;;;;20.67;13.07;;;12.80;99.90;;;;;;5092077;28;20127;-48
2023/03/29 12:31:32;;;;;;;21.10;14.27;;;12.60;99.90;;;;;;5092367;28;20415;-49
2023/03/29 12:34:11;;;;;;;20.35;14.05;;;12.80;99.90;;;;;;5090883;28;20048;-51
2023/03/29 12:36:44;;;;;;;19.13;13.63;;;12.50;99.90;;;;;;5091658;28;20101;-49
2023/03/29 12:39:16;;;;;;;18.85;13.27;;;12.80;99.90;;;;;;5090712;28;20063;-48
2023/03/29 12:41:47;;;;;;;20.42;13.63;;;12.90;99.90;;;;;;5091246;28;20042;-50
2023/03/29 12:44:16;;;;;;;21.98;13.15;;;12.70;99.90;;;;;;5090231;28;20055;-47
2023/03/29 12:46:42;;;;;;;19.52;13.05;;;12.70;99.90;;;;;;5092258;28;20040;-49
2023/03/29 12:49:28;;;;;;;19.85;13.63;;;12.60;99.90;;;;;;5091694;28;20066;-49
2023/03/29 12:51:57;;;;;;;21.90;14.50;;;12.70;99.90;;;;;;5092346;28;20083;-47
2023/03/29 12:54:27;;;;;;;22.42;14.07;;;12.70;99.90;;;;;;5091730;28;20488;-47
2023/03/29 12:56:54;;;;;;;21.55;14.18;;;12.70;99.90;;;;;;5091938;28;20040;-49
2023/03/29 12:59:44;;;;;;;22.73;14.68;;;12.50;99.90;;;;;;5091724;28;20043;-47
2023/03/29 13:02:18;;;;;;;20.48;13.98;;;12.50;99.90;;;;;;5092287;28;20117;-50
2023/03/29 13:04:56;;;;;;;19.85;13.95;;;12.60;99.90;;;;;;5091001;28;20079;-49